Pixley, California
Current Conditions -  °F | °C
As of 9:35 PM on Monday 26 Jan 2015 (Local Time) from KPTV Reporting Station
Overcast Overcast  
Wind Chill: 52°   Ceiling: 9000
Heat Index: 52°   Visibility: 3mi
Dew Point: 48°   Wind: 6mph
Humidity: 88%   Direction: 90°E
Pressure: 30.06"   Gusts: NA
Location:  35.97°N, 119.29°W
Report Text: KPTV 270535Z AUTO 09005KT 3SM OVC090 11/09 A3006 RMK AO1
Loading
Personal Weather Stations






























Interactive Weather Map New forecast layout! Learn more

10-Day Weather Forecast

Advertisements
Track Severe Weather on mobile